sensor_id;sensor_type;location;lat;lon;timestamp;P1;durP1;ratioP1;P2;durP2;ratioP2
12114;SDS011;6121;49.810;6.418;2023-11-21T00:01:39;36.55;;;6.00;;
12114;SDS011;6121;49.810;6.418;2023-11-21T00:04:05;45.80;;;7.30;;
12114;SDS011;6121;49.810;6.418;2023-11-21T00:06:32;40.08;;;6.55;;
12114;SDS011;6121;49.810;6.418;2023-11-21T00:08:59;40.25;;;6.60;;
12114;SDS011;6121;49.810;6.418;2023-11-21T00:11:25;34.25;;;5.85;;
12114;SDS011;6121;49.810;6.418;2023-11-21T00:13:52;47.95;;;7.60;;
12114;SDS011;6121;49.810;6.418;2023-11-21T00:16:18;36.85;;;6.05;;
12114;SDS011;6121;49.810;6.418;2023-11-21T00:18:44;40.22;;;6.57;;
12114;SDS011;6121;49.810;6.418;2023-11-21T00:21:11;40.25;;;6.53;;
12114;SDS011;6121;49.810;6.418;2023-11-21T00:23:38;35.90;;;6.03;;
12114;SDS011;6121;49.810;6.418;2023-11-21T00:26:04;39.30;;;6.47;;
12114;SDS011;6121;49.810;6.418;2023-11-21T00:28:30;36.33;;;6.07;;
12114;SDS011;6121;49.810;6.418;2023-11-21T00:30:57;42.42;;;6.80;;
12114;SDS011;6121;49.810;6.418;2023-11-21T00:33:23;35.03;;;5.85;;
12114;SDS011;6121;49.810;6.418;2023-11-21T00:35:50;42.75;;;6.85;;
12114;SDS011;6121;49.810;6.418;2023-11-21T00:38:16;38.25;;;6.28;;
12114;SDS011;6121;49.810;6.418;2023-11-21T00:40:45;33.83;;;5.68;;
12114;SDS011;6121;49.810;6.418;2023-11-21T00:43:11;37.20;;;6.00;;
12114;SDS011;6121;49.810;6.418;2023-11-21T00:45:37;40.95;;;6.65;;
12114;SDS011;6121;49.810;6.418;2023-11-21T00:48:05;41.97;;;6.68;;
12114;SDS011;6121;49.810;6.418;2023-11-21T00:50:33;37.30;;;6.10;;
12114;SDS011;6121;49.810;6.418;2023-11-21T00:52:59;41.05;;;6.80;;
12114;SDS011;6121;49.810;6.418;2023-11-21T00:55:27;33.10;;;5.55;;
12114;SDS011;6121;49.810;6.418;2023-11-21T00:57:55;47.17;;;7.50;;
12114;SDS011;6121;49.810;6.418;2023-11-21T01:00:21;42.85;;;6.95;;
12114;SDS011;6121;49.810;6.418;2023-11-21T01:02:48;41.83;;;6.85;;
12114;SDS011;6121;49.810;6.418;2023-11-21T01:05:14;39.20;;;6.38;;
12114;SDS011;6121;49.810;6.418;2023-11-21T01:07:41;38.08;;;6.18;;
12114;SDS011;6121;49.810;6.418;2023-11-21T01:10:07;38.33;;;6.43;;
12114;SDS011;6121;49.810;6.418;2023-11-21T01:12:35;46.42;;;7.30;;
12114;SDS011;6121;49.810;6.418;2023-11-21T01:15:02;40.47;;;6.60;;
12114;SDS011;6121;49.810;6.418;2023-11-21T01:17:29;34.90;;;5.80;;
12114;SDS011;6121;49.810;6.418;2023-11-21T01:19:55;37.97;;;6.23;;
12114;SDS011;6121;49.810;6.418;2023-11-21T01:22:23;44.03;;;6.85;;
12114;SDS011;6121;49.810;6.418;2023-11-21T01:24:53;37.33;;;6.10;;
12114;SDS011;6121;49.810;6.418;2023-11-21T01:27:19;49.23;;;7.73;;
12114;SDS011;6121;49.810;6.418;2023-11-21T01:29:46;44.35;;;7.07;;
12114;SDS011;6121;49.810;6.418;2023-11-21T01:32:12;40.55;;;6.53;;
12114;SDS011;6121;49.810;6.418;2023-11-21T01:34:38;34.92;;;5.72;;
12114;SDS011;6121;49.810;6.418;2023-11-21T01:37:05;44.38;;;7.07;;
12114;SDS011;6121;49.810;6.418;2023-11-21T01:39:31;26.95;;;4.72;;
12114;SDS011;6121;49.810;6.418;2023-11-21T01:41:57;40.80;;;6.50;;
12114;SDS011;6121;49.810;6.418;2023-11-21T01:44:24;36.85;;;6.07;;
12114;SDS011;6121;49.810;6.418;2023-11-21T01:46:50;39.45;;;6.38;;
12114;SDS011;6121;49.810;6.418;2023-11-21T01:49:17;35.53;;;5.87;;
12114;SDS011;6121;49.810;6.418;2023-11-21T01:51:46;35.08;;;5.75;;
12114;SDS011;6121;49.810;6.418;2023-11-21T01:54:14;39.20;;;6.25;;
12114;SDS011;6121;49.810;6.418;2023-11-21T01:56:42;42.40;;;6.63;;
12114;SDS011;6121;49.810;6.418;2023-11-21T01:59:08;43.83;;;6.87;;
12114;SDS011;6121;49.810;6.418;2023-11-21T02:01:35;38.70;;;6.18;;
12114;SDS011;6121;49.810;6.418;2023-11-21T02:04:01;40.30;;;6.47;;
12114;SDS011;6121;49.810;6.418;2023-11-21T02:06:27;36.53;;;5.97;;
12114;SDS011;6121;49.810;6.418;2023-11-21T02:08:56;38.85;;;6.25;;
12114;SDS011;6121;49.810;6.418;2023-11-21T02:11:22;36.58;;;5.97;;
12114;SDS011;6121;49.810;6.418;2023-11-21T02:13:49;38.72;;;6.20;;
12114;SDS011;6121;49.810;6.418;2023-11-21T02:16:18;33.95;;;5.57;;
12114;SDS011;6121;49.810;6.418;2023-11-21T02:18:44;36.53;;;5.95;;
12114;SDS011;6121;49.810;6.418;2023-11-21T02:21:13;38.15;;;6.15;;
12114;SDS011;6121;49.810;6.418;2023-11-21T02:23:40;36.60;;;6.00;;
12114;SDS011;6121;49.810;6.418;2023-11-21T02:26:10;39.88;;;6.38;;
12114;SDS011;6121;49.810;6.418;2023-11-21T02:28:36;32.05;;;5.38;;
12114;SDS011;6121;49.810;6.418;2023-11-21T02:31:04;44.05;;;7.00;;
12114;SDS011;6121;49.810;6.418;2023-11-21T02:33:31;35.30;;;5.78;;
12114;SDS011;6121;49.810;6.418;2023-11-21T02:36:02;36.40;;;5.95;;
12114;SDS011;6121;49.810;6.418;2023-11-21T02:38:28;43.58;;;6.82;;
12114;SDS011;6121;49.810;6.418;2023-11-21T02:40:55;38.35;;;6.25;;
12114;SDS011;6121;49.810;6.418;2023-11-21T02:43:21;35.65;;;5.82;;
12114;SDS011;6121;49.810;6.418;2023-11-21T02:45:47;36.87;;;6.00;;
12114;SDS011;6121;49.810;6.418;2023-11-21T02:48:14;43.15;;;6.80;;
12114;SDS011;6121;49.810;6.418;2023-11-21T02:50:40;31.90;;;5.28;;
12114;SDS011;6121;49.810;6.418;2023-11-21T02:53:08;47.47;;;7.30;;
12114;SDS011;6121;49.810;6.418;2023-11-21T02:55:36;36.72;;;5.95;;
12114;SDS011;6121;49.810;6.418;2023-11-21T02:58:02;39.50;;;6.40;;
12114;SDS011;6121;49.810;6.418;2023-11-21T03:00:31;37.60;;;6.20;;
12114;SDS011;6121;49.810;6.418;2023-11-21T03:02:58;36.80;;;6.03;;
12114;SDS011;6121;49.810;6.418;2023-11-21T03:05:25;44.88;;;7.07;;
12114;SDS011;6121;49.810;6.418;2023-11-21T03:07:51;36.47;;;5.90;;
12114;SDS011;6121;49.810;6.418;2023-11-21T03:10:18;40.70;;;6.50;;
12114;SDS011;6121;49.810;6.418;2023-11-21T03:12:44;40.95;;;6.55;;
12114;SDS011;6121;49.810;6.418;2023-11-21T03:15:10;43.63;;;6.93;;
12114;SDS011;6121;49.810;6.418;2023-11-21T03:17:36;37.10;;;6.07;;
12114;SDS011;6121;49.810;6.418;2023-11-21T03:20:03;42.78;;;6.70;;
12114;SDS011;6121;49.810;6.418;2023-11-21T03:22:29;40.88;;;6.50;;
12114;SDS011;6121;49.810;6.418;2023-11-21T03:24:56;41.00;;;6.60;;
12114;SDS011;6121;49.810;6.418;2023-11-21T03:27:22;52.53;;;8.00;;
12114;SDS011;6121;49.810;6.418;2023-11-21T03:29:48;39.03;;;6.20;;
12114;SDS011;6121;49.810;6.418;2023-11-21T03:32:16;38.20;;;6.23;;
12114;SDS011;6121;49.810;6.418;2023-11-21T03:34:57;35.28;;;5.80;;
12114;SDS011;6121;49.810;6.418;2023-11-21T03:37:24;42.20;;;6.70;;
12114;SDS011;6121;49.810;6.418;2023-11-21T03:39:51;37.15;;;6.03;;
12114;SDS011;6121;49.810;6.418;2023-11-21T03:42:17;43.55;;;6.85;;
12114;SDS011;6121;49.810;6.418;2023-11-21T03:44:43;30.42;;;5.10;;
12114;SDS011;6121;49.810;6.418;2023-11-21T03:47:09;47.78;;;7.45;;
12114;SDS011;6121;49.810;6.418;2023-11-21T03:49:36;38.08;;;6.22;;
12114;SDS011;6121;49.810;6.418;2023-11-21T03:52:02;33.47;;;5.60;;
12114;SDS011;6121;49.810;6.418;2023-11-21T03:54:31;40.17;;;6.38;;
12114;SDS011;6121;49.810;6.418;2023-11-21T03:56:57;38.40;;;6.15;;
12114;SDS011;6121;49.810;6.418;2023-11-21T03:59:23;35.78;;;5.82;;
12114;SDS011;6121;49.810;6.418;2023-11-21T04:01:50;41.90;;;6.60;;
12114;SDS011;6121;49.810;6.418;2023-11-21T04:04:16;40.47;;;6.53;;
12114;SDS011;6121;49.810;6.418;2023-11-21T04:06:42;34.70;;;5.70;;
12114;SDS011;6121;49.810;6.418;2023-11-21T04:09:08;34.33;;;5.65;;
12114;SDS011;6121;49.810;6.418;2023-11-21T04:11:34;38.10;;;6.20;;
12114;SDS011;6121;49.810;6.418;2023-11-21T04:14:01;43.33;;;6.88;;
12114;SDS011;6121;49.810;6.418;2023-11-21T04:16:27;37.67;;;6.03;;
12114;SDS011;6121;49.810;6.418;2023-11-21T04:18:53;39.38;;;6.28;;
12114;SDS011;6121;49.810;6.418;2023-11-21T04:21:19;39.00;;;6.15;;
12114;SDS011;6121;49.810;6.418;2023-11-21T04:23:45;33.38;;;5.40;;
12114;SDS011;6121;49.810;6.418;2023-11-21T04:26:11;39.22;;;6.22;;
12114;SDS011;6121;49.810;6.418;2023-11-21T04:28:38;41.92;;;6.60;;
12114;SDS011;6121;49.810;6.418;2023-11-21T04:31:04;43.58;;;6.85;;
12114;SDS011;6121;49.810;6.418;2023-11-21T04:33:32;41.15;;;6.53;;
12114;SDS011;6121;49.810;6.418;2023-11-21T04:35:58;32.58;;;5.30;;
12114;SDS011;6121;49.810;6.418;2023-11-21T04:38:25;29.65;;;4.95;;
12114;SDS011;6121;49.810;6.418;2023-11-21T04:40:51;30.23;;;5.07;;
12114;SDS011;6121;49.810;6.418;2023-11-21T04:43:17;43.47;;;6.83;;
12114;SDS011;6121;49.810;6.418;2023-11-21T04:45:43;29.60;;;4.97;;
12114;SDS011;6121;49.810;6.418;2023-11-21T04:48:09;39.88;;;6.35;;
12114;SDS011;6121;49.810;6.418;2023-11-21T04:50:36;31.90;;;5.38;;
12114;SDS011;6121;49.810;6.418;2023-11-21T04:53:02;34.88;;;5.65;;
12114;SDS011;6121;49.810;6.418;2023-11-21T04:55:28;36.67;;;5.90;;
12114;SDS011;6121;49.810;6.418;2023-11-21T04:57:54;38.40;;;6.13;;
12114;SDS011;6121;49.810;6.418;2023-11-21T05:00:20;38.38;;;6.07;;
12114;SDS011;6121;49.810;6.418;2023-11-21T05:02:47;32.37;;;5.43;;
12114;SDS011;6121;49.810;6.418;2023-11-21T05:05:13;39.47;;;6.30;;
12114;SDS011;6121;49.810;6.418;2023-11-21T05:07:40;33.50;;;5.60;;
12114;SDS011;6121;49.810;6.418;2023-11-21T05:10:07;33.65;;;5.57;;
12114;SDS011;6121;49.810;6.418;2023-11-21T05:12:37;41.90;;;6.75;;
12114;SDS011;6121;49.810;6.418;2023-11-21T05:15:03;36.03;;;5.90;;
12114;SDS011;6121;49.810;6.418;2023-11-21T05:17:33;35.17;;;5.70;;
12114;SDS011;6121;49.810;6.418;2023-11-21T05:20:03;31.50;;;5.30;;
12114;SDS011;6121;49.810;6.418;2023-11-21T05:22:33;32.70;;;5.57;;
12114;SDS011;6121;49.810;6.418;2023-11-21T05:25:00;34.65;;;5.90;;
12114;SDS011;6121;49.810;6.418;2023-11-21T05:27:26;42.45;;;6.90;;
12114;SDS011;6121;49.810;6.418;2023-11-21T05:29:52;44.75;;;7.13;;
12114;SDS011;6121;49.810;6.418;2023-11-21T05:32:18;32.00;;;5.45;;
12114;SDS011;6121;49.810;6.418;2023-11-21T05:34:45;37.97;;;6.25;;
12114;SDS011;6121;49.810;6.418;2023-11-21T05:37:11;40.88;;;6.68;;
12114;SDS011;6121;49.810;6.418;2023-11-21T05:39:37;39.08;;;6.38;;
12114;SDS011;6121;49.810;6.418;2023-11-21T05:42:03;34.55;;;5.75;;
12114;SDS011;6121;49.810;6.418;2023-11-21T05:44:30;34.03;;;5.60;;
12114;SDS011;6121;49.810;6.418;2023-11-21T05:46:56;33.35;;;5.72;;
12114;SDS011;6121;49.810;6.418;2023-11-21T05:49:24;36.00;;;6.03;;
12114;SDS011;6121;49.810;6.418;2023-11-21T05:51:52;34.15;;;5.72;;
12114;SDS011;6121;49.810;6.418;2023-11-21T05:54:19;37.72;;;6.22;;
12114;SDS011;6121;49.810;6.418;2023-11-21T05:56:45;51.65;;;8.02;;
12114;SDS011;6121;49.810;6.418;2023-11-21T05:59:12;49.37;;;7.70;;
12114;SDS011;6121;49.810;6.418;2023-11-21T06:01:38;54.25;;;8.32;;
12114;SDS011;6121;49.810;6.418;2023-11-21T06:04:04;54.38;;;8.30;;
12114;SDS011;6121;49.810;6.418;2023-11-21T06:06:33;60.58;;;9.07;;
12114;SDS011;6121;49.810;6.418;2023-11-21T06:08:59;81.63;;;11.93;;
12114;SDS011;6121;49.810;6.418;2023-11-21T06:11:25;92.20;;;13.50;;
12114;SDS011;6121;49.810;6.418;2023-11-21T06:13:52;94.13;;;13.68;;
12114;SDS011;6121;49.810;6.418;2023-11-21T06:16:21;71.45;;;10.63;;
12114;SDS011;6121;49.810;6.418;2023-11-21T06:18:47;68.88;;;10.20;;
12114;SDS011;6121;49.810;6.418;2023-11-21T06:21:13;69.40;;;10.48;;
12114;SDS011;6121;49.810;6.418;2023-11-21T06:23:42;84.13;;;12.32;;
12114;SDS011;6121;49.810;6.418;2023-11-21T06:26:08;86.60;;;12.63;;
12114;SDS011;6121;49.810;6.418;2023-11-21T06:28:34;105.07;;;15.07;;
12114;SDS011;6121;49.810;6.418;2023-11-21T06:31:03;75.05;;;11.10;;
12114;SDS011;6121;49.810;6.418;2023-11-21T06:33:33;77.00;;;11.27;;
12114;SDS011;6121;49.810;6.418;2023-11-21T06:36:00;89.22;;;12.90;;
12114;SDS011;6121;49.810;6.418;2023-11-21T06:38:29;100.03;;;14.27;;
12114;SDS011;6121;49.810;6.418;2023-11-21T06:40:57;75.78;;;11.18;;
12114;SDS011;6121;49.810;6.418;2023-11-21T06:43:24;82.85;;;11.98;;
12114;SDS011;6121;49.810;6.418;2023-11-21T06:45:50;78.70;;;11.48;;
12114;SDS011;6121;49.810;6.418;2023-11-21T06:48:16;95.18;;;13.57;;
12114;SDS011;6121;49.810;6.418;2023-11-21T06:50:43;75.63;;;11.27;;
12114;SDS011;6121;49.810;6.418;2023-11-21T06:53:09;80.03;;;11.90;;
12114;SDS011;6121;49.810;6.418;2023-11-21T06:55:35;70.18;;;10.50;;
12114;SDS011;6121;49.810;6.418;2023-11-21T06:58:01;77.90;;;11.63;;
12114;SDS011;6121;49.810;6.418;2023-11-21T07:00:28;76.13;;;11.52;;
12114;SDS011;6121;49.810;6.418;2023-11-21T07:02:55;73.75;;;11.18;;
12114;SDS011;6121;49.810;6.418;2023-11-21T07:05:21;79.63;;;11.93;;
12114;SDS011;6121;49.810;6.418;2023-11-21T07:07:48;73.63;;;11.10;;
12114;SDS011;6121;49.810;6.418;2023-11-21T07:10:15;75.88;;;11.38;;
12114;SDS011;6121;49.810;6.418;2023-11-21T07:12:42;93.53;;;13.65;;
12114;SDS011;6121;49.810;6.418;2023-11-21T07:15:08;61.08;;;9.60;;
12114;SDS011;6121;49.810;6.418;2023-11-21T07:17:35;75.20;;;11.32;;
12114;SDS011;6121;49.810;6.418;2023-11-21T07:20:01;77.88;;;11.60;;
12114;SDS011;6121;49.810;6.418;2023-11-21T07:22:28;82.03;;;12.38;;
12114;SDS011;6121;49.810;6.418;2023-11-21T07:24:55;66.43;;;10.20;;
12114;SDS011;6121;49.810;6.418;2023-11-21T07:27:24;96.07;;;14.02;;
12114;SDS011;6121;49.810;6.418;2023-11-21T07:29:50;75.00;;;11.27;;
12114;SDS011;6121;49.810;6.418;2023-11-21T07:32:16;91.82;;;13.50;;
12114;SDS011;6121;49.810;6.418;2023-11-21T07:34:43;77.40;;;11.57;;
12114;SDS011;6121;49.810;6.418;2023-11-21T07:37:09;71.57;;;10.95;;
12114;SDS011;6121;49.810;6.418;2023-11-21T07:39:35;53.88;;;8.52;;
12114;SDS011;6121;49.810;6.418;2023-11-21T07:42:02;77.32;;;11.60;;
12114;SDS011;6121;49.810;6.418;2023-11-21T07:44:28;77.65;;;11.73;;
12114;SDS011;6121;49.810;6.418;2023-11-21T07:46:54;78.53;;;11.70;;
12114;SDS011;6121;49.810;6.418;2023-11-21T07:49:23;56.35;;;8.88;;
12114;SDS011;6121;49.810;6.418;2023-11-21T07:51:49;65.53;;;10.20;;
12114;SDS011;6121;49.810;6.418;2023-11-21T07:54:15;75.97;;;11.33;;
12114;SDS011;6121;49.810;6.418;2023-11-21T07:56:42;72.88;;;11.05;;
12114;SDS011;6121;49.810;6.418;2023-11-21T07:59:08;86.10;;;12.77;;
12114;SDS011;6121;49.810;6.418;2023-11-21T08:01:34;67.55;;;10.30;;
12114;SDS011;6121;49.810;6.418;2023-11-21T08:04:00;70.57;;;10.65;;
12114;SDS011;6121;49.810;6.418;2023-11-21T08:06:31;99.43;;;14.52;;
12114;SDS011;6121;49.810;6.418;2023-11-21T08:08:58;82.47;;;12.30;;
12114;SDS011;6121;49.810;6.418;2023-11-21T08:11:25;72.18;;;11.00;;
12114;SDS011;6121;49.810;6.418;2023-11-21T08:13:56;85.82;;;12.73;;
12114;SDS011;6121;49.810;6.418;2023-11-21T08:16:24;85.70;;;12.77;;
12114;SDS011;6121;49.810;6.418;2023-11-21T08:18:50;80.60;;;12.02;;
12114;SDS011;6121;49.810;6.418;2023-11-21T08:21:16;75.47;;;11.45;;
12114;SDS011;6121;49.810;6.418;2023-11-21T08:23:44;85.13;;;12.73;;
12114;SDS011;6121;49.810;6.418;2023-11-21T08:26:10;88.30;;;13.13;;
12114;SDS011;6121;49.810;6.418;2023-11-21T08:28:36;100.47;;;14.60;;
12114;SDS011;6121;49.810;6.418;2023-11-21T08:31:02;81.72;;;12.10;;
12114;SDS011;6121;49.810;6.418;2023-11-21T08:33:29;81.33;;;12.23;;
12114;SDS011;6121;49.810;6.418;2023-11-21T08:35:55;73.25;;;11.25;;
12114;SDS011;6121;49.810;6.418;2023-11-21T08:38:22;89.93;;;13.47;;
12114;SDS011;6121;49.810;6.418;2023-11-21T08:40:48;84.70;;;12.70;;
12114;SDS011;6121;49.810;6.418;2023-11-21T08:43:14;96.68;;;14.20;;
12114;SDS011;6121;49.810;6.418;2023-11-21T08:45:41;76.85;;;11.68;;
12114;SDS011;6121;49.810;6.418;2023-11-21T08:48:07;92.07;;;13.73;;
12114;SDS011;6121;49.810;6.418;2023-11-21T08:50:34;73.05;;;11.20;;
12114;SDS011;6121;49.810;6.418;2023-11-21T08:53:00;81.85;;;12.15;;
12114;SDS011;6121;49.810;6.418;2023-11-21T08:55:26;60.63;;;9.53;;
12114;SDS011;6121;49.810;6.418;2023-11-21T08:57:53;98.50;;;14.40;;
12114;SDS011;6121;49.810;6.418;2023-11-21T09:00:20;81.15;;;12.13;;
12114;SDS011;6121;49.810;6.418;2023-11-21T09:02:47;77.38;;;11.63;;
12114;SDS011;6121;49.810;6.418;2023-11-21T09:05:13;94.90;;;13.85;;
12114;SDS011;6121;49.810;6.418;2023-11-21T09:07:40;75.22;;;11.23;;
12114;SDS011;6121;49.810;6.418;2023-11-21T09:10:07;74.67;;;11.23;;
12114;SDS011;6121;49.810;6.418;2023-11-21T09:12:34;93.35;;;13.65;;
12114;SDS011;6121;49.810;6.418;2023-11-21T09:15:02;76.00;;;11.40;;
12114;SDS011;6121;49.810;6.418;2023-11-21T09:17:30;88.95;;;13.20;;
12114;SDS011;6121;49.810;6.418;2023-11-21T09:19:56;76.22;;;11.43;;
12114;SDS011;6121;49.810;6.418;2023-11-21T09:22:22;84.75;;;12.52;;
12114;SDS011;6121;49.810;6.418;2023-11-21T09:24:50;81.35;;;12.20;;
12114;SDS011;6121;49.810;6.418;2023-11-21T09:27:17;98.05;;;14.25;;
12114;SDS011;6121;49.810;6.418;2023-11-21T09:29:43;78.85;;;11.85;;
12114;SDS011;6121;49.810;6.418;2023-11-21T09:32:09;78.78;;;11.75;;
12114;SDS011;6121;49.810;6.418;2023-11-21T09:34:39;72.03;;;11.05;;
12114;SDS011;6121;49.810;6.418;2023-11-21T09:37:07;83.55;;;12.43;;
12114;SDS011;6121;49.810;6.418;2023-11-21T09:39:33;75.75;;;11.50;;
12114;SDS011;6121;49.810;6.418;2023-11-21T09:42:17;69.78;;;10.65;;
12114;SDS011;6121;49.810;6.418;2023-11-21T09:44:45;64.88;;;9.93;;
12114;SDS011;6121;49.810;6.418;2023-11-21T09:47:14;93.72;;;13.65;;
12114;SDS011;6121;49.810;6.418;2023-11-21T09:49:42;80.97;;;12.15;;
12114;SDS011;6121;49.810;6.418;2023-11-21T09:52:13;80.55;;;12.00;;
12114;SDS011;6121;49.810;6.418;2023-11-21T09:54:43;65.90;;;10.05;;
12114;SDS011;6121;49.810;6.418;2023-11-21T09:57:10;91.82;;;13.38;;
12114;SDS011;6121;49.810;6.418;2023-11-21T09:59:36;80.20;;;11.88;;
12114;SDS011;6121;49.810;6.418;2023-11-21T10:02:03;86.85;;;12.70;;
12114;SDS011;6121;49.810;6.418;2023-11-21T10:04:29;75.53;;;11.33;;
12114;SDS011;6121;49.810;6.418;2023-11-21T10:06:57;86.75;;;12.77;;
12114;SDS011;6121;49.810;6.418;2023-11-21T10:09:24;81.17;;;11.80;;
12114;SDS011;6121;49.810;6.418;2023-11-21T10:11:52;79.00;;;11.75;;
12114;SDS011;6121;49.810;6.418;2023-11-21T10:14:18;75.80;;;11.27;;
12114;SDS011;6121;49.810;6.418;2023-11-21T10:16:46;81.80;;;12.07;;
12114;SDS011;6121;49.810;6.418;2023-11-21T10:19:13;98.07;;;14.27;;
12114;SDS011;6121;49.810;6.418;2023-11-21T10:21:41;66.20;;;10.03;;
12114;SDS011;6121;49.810;6.418;2023-11-21T10:24:07;81.97;;;12.10;;
12114;SDS011;6121;49.810;6.418;2023-11-21T10:26:34;82.20;;;12.10;;
12114;SDS011;6121;49.810;6.418;2023-11-21T10:29:03;85.18;;;12.52;;
12114;SDS011;6121;49.810;6.418;2023-11-21T10:31:30;78.90;;;11.70;;
12114;SDS011;6121;49.810;6.418;2023-11-21T10:34:15;86.65;;;12.85;;
12114;SDS011;6121;49.810;6.418;2023-11-21T10:36:41;72.22;;;10.88;;
12114;SDS011;6121;49.810;6.418;2023-11-21T10:39:08;81.85;;;12.30;;
12114;SDS011;6121;49.810;6.418;2023-11-21T10:41:37;75.72;;;11.38;;
12114;SDS011;6121;49.810;6.418;2023-11-21T10:44:03;82.27;;;12.23;;
12114;SDS011;6121;49.810;6.418;2023-11-21T10:46:32;97.03;;;14.10;;
12114;SDS011;6121;49.810;6.418;2023-11-21T10:49:00;94.35;;;13.88;;
12114;SDS011;6121;49.810;6.418;2023-11-21T10:51:27;75.63;;;11.40;;
12114;SDS011;6121;49.810;6.418;2023-11-21T10:53:53;76.47;;;11.47;;
12114;SDS011;6121;49.810;6.418;2023-11-21T10:56:19;107.00;;;15.38;;
12114;SDS011;6121;49.810;6.418;2023-11-21T10:58:49;83.90;;;12.50;;
12114;SDS011;6121;49.810;6.418;2023-11-21T11:01:17;80.18;;;12.00;;
12114;SDS011;6121;49.810;6.418;2023-11-21T11:03:44;69.40;;;10.47;;
12114;SDS011;6121;49.810;6.418;2023-11-21T11:06:10;87.22;;;12.82;;
12114;SDS011;6121;49.810;6.418;2023-11-21T11:08:38;92.18;;;13.52;;
12114;SDS011;6121;49.810;6.418;2023-11-21T11:11:05;87.30;;;12.98;;
12114;SDS011;6121;49.810;6.418;2023-11-21T11:13:31;83.10;;;12.30;;
12114;SDS011;6121;49.810;6.418;2023-11-21T11:15:58;69.65;;;10.68;;
12114;SDS011;6121;49.810;6.418;2023-11-21T11:18:25;75.95;;;11.35;;
12114;SDS011;6121;49.810;6.418;2023-11-21T11:20:52;70.15;;;10.57;;
12114;SDS011;6121;49.810;6.418;2023-11-21T11:26:12;83.35;;;12.48;;
12114;SDS011;6121;49.810;6.418;2023-11-21T11:34:54;74.38;;;11.07;;
12114;SDS011;6121;49.810;6.418;2023-11-21T11:36:58;72.88;;;10.80;;
12114;SDS011;6121;49.810;6.418;2023-11-21T11:39:36;84.00;;;12.18;;
12114;SDS011;6121;49.810;6.418;2023-11-21T11:42:03;79.85;;;11.90;;
12114;SDS011;6121;49.810;6.418;2023-11-21T11:47:30;80.38;;;11.85;;
12114;SDS011;6121;49.810;6.418;2023-11-21T11:50:09;81.65;;;12.02;;
12114;SDS011;6121;49.810;6.418;2023-11-21T11:52:54;82.03;;;12.03;;
12114;SDS011;6121;49.810;6.418;2023-11-21T11:55:23;95.47;;;13.73;;
12114;SDS011;6121;49.810;6.418;2023-11-21T11:57:51;83.35;;;12.10;;
12114;SDS011;6121;49.810;6.418;2023-11-21T12:00:18;78.53;;;11.45;;
12114;SDS011;6121;49.810;6.418;2023-11-21T12:02:51;81.03;;;11.73;;
12114;SDS011;6121;49.810;6.418;2023-11-21T12:05:21;87.10;;;12.52;;
12114;SDS011;6121;49.810;6.418;2023-11-21T12:07:49;79.30;;;11.47;;
12114;SDS011;6121;49.810;6.418;2023-11-21T12:10:17;84.53;;;12.23;;
12114;SDS011;6121;49.810;6.418;2023-11-21T12:12:44;78.80;;;11.45;;
12114;SDS011;6121;49.810;6.418;2023-11-21T12:15:11;73.15;;;10.85;;
12114;SDS011;6121;49.810;6.418;2023-11-21T12:17:38;85.35;;;12.50;;
12114;SDS011;6121;49.810;6.418;2023-11-21T12:20:05;95.65;;;13.73;;
12114;SDS011;6121;49.810;6.418;2023-11-21T12:22:49;78.43;;;11.70;;
12114;SDS011;6121;49.810;6.418;2023-11-21T12:27:43;82.57;;;12.10;;
12114;SDS011;6121;49.810;6.418;2023-11-21T12:30:11;82.88;;;12.13;;
12114;SDS011;6121;49.810;6.418;2023-11-21T12:32:39;102.20;;;14.73;;
12114;SDS011;6121;49.810;6.418;2023-11-21T12:35:07;66.85;;;10.30;;
12114;SDS011;6121;49.810;6.418;2023-11-21T12:37:35;76.70;;;11.38;;
12114;SDS011;6121;49.810;6.418;2023-11-21T12:40:02;80.97;;;12.00;;
12114;SDS011;6121;49.810;6.418;2023-11-21T12:42:28;110.22;;;15.95;;
12114;SDS011;6121;49.810;6.418;2023-11-21T12:45:09;64.57;;;10.05;;
12114;SDS011;6121;49.810;6.418;2023-11-21T12:47:43;70.97;;;10.75;;
12114;SDS011;6121;49.810;6.418;2023-11-21T12:50:10;81.85;;;12.35;;
12114;SDS011;6121;49.810;6.418;2023-11-21T12:52:43;85.55;;;12.60;;
12114;SDS011;6121;49.810;6.418;2023-11-21T12:55:20;79.43;;;11.57;;
12114;SDS011;6121;49.810;6.418;2023-11-21T12:57:50;81.40;;;11.85;;
12114;SDS011;6121;49.810;6.418;2023-11-21T13:00:17;71.18;;;10.70;;
12114;SDS011;6121;49.810;6.418;2023-11-21T13:02:56;69.90;;;10.50;;
12114;SDS011;6121;49.810;6.418;2023-11-21T13:05:45;78.07;;;11.52;;
12114;SDS011;6121;49.810;6.418;2023-11-21T13:08:11;84.37;;;12.20;;
12114;SDS011;6121;49.810;6.418;2023-11-21T13:10:38;86.70;;;12.52;;
12114;SDS011;6121;49.810;6.418;2023-11-21T13:13:06;75.93;;;11.13;;
12114;SDS011;6121;49.810;6.418;2023-11-21T13:15:34;82.22;;;11.80;;
12114;SDS011;6121;49.810;6.418;2023-11-21T13:18:01;68.45;;;10.32;;
12114;SDS011;6121;49.810;6.418;2023-11-21T13:20:28;88.47;;;12.73;;
12114;SDS011;6121;49.810;6.418;2023-11-21T13:22:55;73.82;;;10.93;;
12114;SDS011;6121;49.810;6.418;2023-11-21T13:25:26;65.20;;;9.75;;
12114;SDS011;6121;49.810;6.418;2023-11-21T13:27:53;72.13;;;10.57;;
12114;SDS011;6121;49.810;6.418;2023-11-21T13:30:20;77.90;;;11.48;;
12114;SDS011;6121;49.810;6.418;2023-11-21T13:32:53;76.38;;;11.05;;
12114;SDS011;6121;49.810;6.418;2023-11-21T13:35:22;75.22;;;10.93;;
12114;SDS011;6121;49.810;6.418;2023-11-21T13:38:06;70.22;;;10.18;;
12114;SDS011;6121;49.810;6.418;2023-11-21T13:40:35;89.53;;;12.73;;
12114;SDS011;6121;49.810;6.418;2023-11-21T13:43:15;77.05;;;11.30;;
12114;SDS011;6121;49.810;6.418;2023-11-21T13:45:42;79.03;;;11.45;;
12114;SDS011;6121;49.810;6.418;2023-11-21T13:48:09;82.75;;;11.95;;
12114;SDS011;6121;49.810;6.418;2023-11-21T13:50:45;76.72;;;11.15;;
12114;SDS011;6121;49.810;6.418;2023-11-21T13:53:23;80.95;;;11.65;;
12114;SDS011;6121;49.810;6.418;2023-11-21T13:55:50;82.20;;;11.87;;
12114;SDS011;6121;49.810;6.418;2023-11-21T13:58:19;92.93;;;13.25;;
12114;SDS011;6121;49.810;6.418;2023-11-21T14:00:50;77.20;;;11.18;;
12114;SDS011;6121;49.810;6.418;2023-11-21T14:03:22;82.27;;;11.87;;
12114;SDS011;6121;49.810;6.418;2023-11-21T14:05:50;72.60;;;10.75;;
12114;SDS011;6121;49.810;6.418;2023-11-21T14:08:20;63.20;;;9.40;;
12114;SDS011;6121;49.810;6.418;2023-11-21T14:10:49;69.88;;;10.25;;
12114;SDS011;6121;49.810;6.418;2023-11-21T14:13:16;87.20;;;12.43;;
12114;SDS011;6121;49.810;6.418;2023-11-21T14:15:43;71.88;;;10.55;;
12114;SDS011;6121;49.810;6.418;2023-11-21T14:18:11;72.85;;;10.60;;
12114;SDS011;6121;49.810;6.418;2023-11-21T14:20:39;96.22;;;13.70;;
12114;SDS011;6121;49.810;6.418;2023-11-21T14:23:06;80.28;;;11.60;;
12114;SDS011;6121;49.810;6.418;2023-11-21T14:25:34;77.85;;;11.43;;
12114;SDS011;6121;49.810;6.418;2023-11-21T14:28:02;74.13;;;11.00;;
12114;SDS011;6121;49.810;6.418;2023-11-21T14:30:29;87.47;;;12.57;;
12114;SDS011;6121;49.810;6.418;2023-11-21T14:32:58;88.68;;;12.82;;
12114;SDS011;6121;49.810;6.418;2023-11-21T14:35:24;86.85;;;12.68;;
12114;SDS011;6121;49.810;6.418;2023-11-21T14:37:52;77.32;;;11.43;;
12114;SDS011;6121;49.810;6.418;2023-11-21T14:40:18;88.38;;;12.93;;
12114;SDS011;6121;49.810;6.418;2023-11-21T14:42:49;108.65;;;15.52;;
12114;SDS011;6121;49.810;6.418;2023-11-21T14:45:21;96.27;;;13.97;;
12114;SDS011;6121;49.810;6.418;2023-11-21T14:47:50;83.97;;;12.32;;
12114;SDS011;6121;49.810;6.418;2023-11-21T14:50:30;77.53;;;11.48;;
12114;SDS011;6121;49.810;6.418;2023-11-21T14:53:35;92.88;;;13.43;;
12114;SDS011;6121;49.810;6.418;2023-11-21T14:56:20;93.03;;;13.48;;
12114;SDS011;6121;49.810;6.418;2023-11-21T14:58:56;86.20;;;12.73;;